createdAt,value
2023-03-30T00:02:44.465Z,23.33
2023-03-30T00:07:47.528Z,22.27
2023-03-30T00:12:50.914Z,22.83
2023-03-30T00:17:55.262Z,23.40
2023-03-30T00:22:58.216Z,25.13
2023-03-30T00:28:00.754Z,21.40
2023-03-30T00:33:04.074Z,24.33
2023-03-30T00:38:06.990Z,22.90
2023-03-30T00:43:11.922Z,22.47
2023-03-30T00:48:27.499Z,21.87
2023-03-30T00:53:37.868Z,25.37
2023-03-30T00:58:42.026Z,23.67
2023-03-30T01:03:48.097Z,27.07
2023-03-30T01:08:52.943Z,25.23
2023-03-30T01:14:01.989Z,25.13
2023-03-30T01:19:46.017Z,22.40
2023-03-30T01:25:26.300Z,24.70
2023-03-30T01:30:46.192Z,26.80
2023-03-30T01:36:15.521Z,25.07
2023-03-30T01:41:39.925Z,29.83
2023-03-30T01:47:08.730Z,23.77
2023-03-30T01:52:20.057Z,26.07
2023-03-30T01:57:31.629Z,30.23
2023-03-30T02:02:34.930Z,22.07
2023-03-30T02:07:41.709Z,23.83
2023-03-30T02:12:46.636Z,27.20
2023-03-30T02:17:49.793Z,22.63
2023-03-30T02:22:52.216Z,22.40
2023-03-30T02:27:54.771Z,24.77
2023-03-30T02:32:57.438Z,24.37
2023-03-30T02:38:30.796Z,22.70
2023-03-30T02:43:51.373Z,25.83
2023-03-30T02:48:53.729Z,31.50
2023-03-30T02:54:05.369Z,23.43
2023-03-30T03:00:09.120Z,24.57
2023-03-30T03:05:14.770Z,25.17
2023-03-30T03:10:27.031Z,27.10
2023-03-30T03:15:30.329Z,25.17
2023-03-30T03:20:42.900Z,23.30
2023-03-30T03:25:45.944Z,21.57
2023-03-30T03:30:51.120Z,25.60
2023-03-30T03:35:59.200Z,26.10
2023-03-30T03:41:02.948Z,26.67
2023-03-30T03:46:06.809Z,30.13
2023-03-30T03:51:09.973Z,40.93
2023-03-30T03:56:12.745Z,32.43
2023-03-30T04:01:15.405Z,25.10
2023-03-30T04:06:17.806Z,23.53
2023-03-30T04:11:20.388Z,28.30
2023-03-30T04:16:41.171Z,25.43
2023-03-30T04:22:13.763Z,33.67
2023-03-30T04:27:35.025Z,40.43
2023-03-30T04:33:04.533Z,43.13
2023-03-30T04:38:30.374Z,58.90
2023-03-30T04:43:46.675Z,53.83
2023-03-30T04:49:07.747Z,52.33
2023-03-30T04:54:33.413Z,51.47
2023-03-30T04:59:36.360Z,52.77
2023-03-30T05:05:04.886Z,39.83
2023-03-30T05:10:42.610Z,38.90
2023-03-30T05:16:22.158Z,55.73
2023-03-30T05:21:41.960Z,32.83
2023-03-30T05:27:05.068Z,32.03
2023-03-30T05:32:25.959Z,56.97
2023-03-30T05:37:43.635Z,45.63
2023-03-30T05:43:04.386Z,35.83
2023-03-30T05:48:21.528Z,34.47
2023-03-30T05:53:50.047Z,38.67
2023-03-30T05:59:21.742Z,30.97
2023-03-30T06:04:50.117Z,30.03
2023-03-30T06:09:54.246Z,37.57
2023-03-30T06:15:03.400Z,34.83
2023-03-30T06:20:16.977Z,37.97
2023-03-30T06:25:23.558Z,51.40
2023-03-30T06:30:27.225Z,52.07
2023-03-30T06:35:33.638Z,41.07
2023-03-30T06:40:39.977Z,35.30
2023-03-30T06:45:43.235Z,57.67
2023-03-30T06:50:49.288Z,29.53
2023-03-30T06:55:58.156Z,51.47
2023-03-30T07:01:16.046Z,58.50
2023-03-30T07:06:37.325Z,39.97
2023-03-30T07:11:39.923Z,35.97
2023-03-30T07:16:42.556Z,44.57
2023-03-30T07:21:45.272Z,48.00
2023-03-30T07:26:51.082Z,39.93
2023-03-30T07:31:55.126Z,41.17
2023-03-30T07:36:58.935Z,36.03
2023-03-30T07:42:05.664Z,32.43
2023-03-30T07:47:09.673Z,39.97
2023-03-30T07:52:14.152Z,36.23
2023-03-30T07:57:26.248Z,34.77
2023-03-30T08:02:28.799Z,30.57
2023-03-30T08:07:34.224Z,31.07
2023-03-30T08:12:44.684Z,29.13
2023-03-30T08:17:47.231Z,28.30
2023-03-30T08:22:49.629Z,32.27
2023-03-30T08:27:51.994Z,36.27
2023-03-30T08:32:54.411Z,35.73
2023-03-30T08:37:57.041Z,34.27
2023-03-30T08:43:10.406Z,26.33
2023-03-30T08:48:23.033Z,31.87
2023-03-30T08:53:28.066Z,23.27
2023-03-30T08:58:36.033Z,27.37
2023-03-30T09:03:43.935Z,17.97
2023-03-30T09:08:48.540Z,18.87
2023-03-30T09:13:51.936Z,26.23
2023-03-30T09:18:57.267Z,20.90
2023-03-30T09:24:10.816Z,22.83
2023-03-30T09:29:22.221Z,18.90
2023-03-30T09:34:47.107Z,21.63
2023-03-30T09:39:50.940Z,20.93
2023-03-30T09:45:14.886Z,25.60
2023-03-30T09:50:23.694Z,23.50
2023-03-30T09:55:32.215Z,21.23
2023-03-30T10:00:34.587Z,22.37
2023-03-30T10:05:38.166Z,20.47
2023-03-30T10:10:41.202Z,19.67
2023-03-30T10:15:46.432Z,28.17
2023-03-30T10:20:54.726Z,18.70
2023-03-30T10:26:03.647Z,18.60
2023-03-30T10:31:16.291Z,19.67
2023-03-30T10:36:19.696Z,26.30
2023-03-30T10:41:24.466Z,21.50
2023-03-30T10:46:27.207Z,18.20
2023-03-30T10:52:00.445Z,19.47
2023-03-30T10:57:17.930Z,20.27
2023-03-30T11:02:26.279Z,23.23
2023-03-30T11:07:35.689Z,22.57
2023-03-30T11:12:46.011Z,24.97
2023-03-30T11:18:13.933Z,20.63
2023-03-30T11:23:38.860Z,21.30
2023-03-30T11:29:13.339Z,27.80
2023-03-30T11:34:34.251Z,22.10
2023-03-30T11:39:41.468Z,25.23
2023-03-30T11:44:44.491Z,32.13
2023-03-30T11:49:55.771Z,87.50
2023-03-30T11:55:33.875Z,26.13
2023-03-30T12:00:51.721Z,26.00
2023-03-30T12:06:17.092Z,25.87
2023-03-30T12:11:39.831Z,24.47
2023-03-30T12:16:46.998Z,27.63
2023-03-30T12:22:00.848Z,27.20
2023-03-30T12:27:06.152Z,29.17
2023-03-30T12:32:20.085Z,23.97
2023-03-30T12:37:34.987Z,24.50
2023-03-30T12:42:54.176Z,29.07
2023-03-30T12:48:10.208Z,55.50
2023-03-30T12:53:21.870Z,46.83
2023-03-30T12:58:34.239Z,29.40
2023-03-30T13:03:49.431Z,97.83
2023-03-30T13:09:16.273Z,34.83
2023-03-30T13:14:30.534Z,31.30
2023-03-30T13:19:32.918Z,58.30
2023-03-30T13:24:55.801Z,35.90
2023-03-30T13:30:06.518Z,45.70
2023-03-30T13:35:26.945Z,46.83
2023-03-30T13:40:43.859Z,39.53
2023-03-30T13:46:24.029Z,51.23
2023-03-30T13:51:30.122Z,47.50
2023-03-30T13:56:36.180Z,84.17
2023-03-30T14:01:40.445Z,69.87
2023-03-30T14:06:46.274Z,19.27
2023-03-30T14:12:04.655Z,22.17
2023-03-30T14:17:21.943Z,28.73
2023-03-30T14:22:27.344Z,23.63
2023-03-30T14:27:36.097Z,15.90
2023-03-30T14:32:38.633Z,52.27
2023-03-30T14:42:45.290Z,36.40
2023-03-30T14:47:49.157Z,87.27
2023-03-30T14:52:52.589Z,50.37
2023-03-30T14:57:57.345Z,23.60
2023-03-30T15:03:01.489Z,27.80
2023-03-30T15:08:04.560Z,27.63
2023-03-30T15:13:07.975Z,29.40
2023-03-30T15:18:18.995Z,28.53
2023-03-30T15:23:21.904Z,23.03
2023-03-30T15:28:24.340Z,28.10
2023-03-30T15:33:41.736Z,27.27
2023-03-30T15:38:48.733Z,23.17
2023-03-30T15:44:08.885Z,22.47
2023-03-30T15:49:15.969Z,29.40
2023-03-30T15:54:37.695Z,45.73
2023-03-30T15:59:52.123Z,44.00
2023-03-30T16:04:55.102Z,29.27
2023-03-30T16:09:57.450Z,32.20
2023-03-30T16:14:59.803Z,29.27
2023-03-30T16:20:04.306Z,32.20
2023-03-30T16:25:09.039Z,33.00
2023-03-30T16:30:14.967Z,29.80
2023-03-30T16:35:17.560Z,40.33
2023-03-30T16:40:42.826Z,74.17
2023-03-30T16:45:45.357Z,265.63
2023-03-30T16:50:52.138Z,217.73
2023-03-30T16:55:54.828Z,87.43
2023-03-30T17:01:03.289Z,66.00
2023-03-30T17:06:06.952Z,54.13
2023-03-30T17:11:10.895Z,61.33
2023-03-30T17:16:14.976Z,44.37
2023-03-30T17:21:17.401Z,45.90
2023-03-30T17:26:21.078Z,69.80
2023-03-30T17:31:23.498Z,47.07
2023-03-30T17:36:27.020Z,45.90
2023-03-30T17:41:29.386Z,58.77
2023-03-30T17:46:32.879Z,56.20
2023-03-30T17:51:35.763Z,62.10
2023-03-30T17:56:38.090Z,97.30
2023-03-30T18:01:40.698Z,28.07
2023-03-30T18:06:43.081Z,27.90
2023-03-30T18:11:45.470Z,18.80
2023-03-30T18:16:50.025Z,14.27
2023-03-30T18:21:52.744Z,11.93
2023-03-30T18:26:55.052Z,7.50
2023-03-30T18:31:57.391Z,8.77
2023-03-30T18:36:59.817Z,27.73
2023-03-30T18:42:02.278Z,30.10
2023-03-30T18:47:04.814Z,41.67
2023-03-30T18:52:07.505Z,34.60
2023-03-30T18:57:10.862Z,22.70
2023-03-30T19:02:13.203Z,75.30
2023-03-30T19:07:15.741Z,86.93
2023-03-30T19:12:18.129Z,50.27
2023-03-30T19:17:20.612Z,46.83
2023-03-30T19:22:23.062Z,31.30
2023-03-30T19:27:25.468Z,17.47
2023-03-30T19:32:29.694Z,25.03
2023-03-30T19:37:32.161Z,17.90
2023-03-30T19:42:35.537Z,24.33
2023-03-30T19:47:38.136Z,17.47
2023-03-30T19:52:40.847Z,17.37
2023-03-30T19:57:43.676Z,15.37
2023-03-30T20:02:49.280Z,22.73
2023-03-30T20:07:51.887Z,17.03
2023-03-30T20:12:54.611Z,21.83
2023-03-30T20:17:59.423Z,23.63
2023-03-30T20:23:02.134Z,20.70
2023-03-30T20:28:04.553Z,26.90
2023-03-30T20:33:08.900Z,18.17
2023-03-30T20:38:11.417Z,19.23
2023-03-30T20:43:15.246Z,16.43
2023-03-30T20:48:27.127Z,15.60
2023-03-30T20:53:30.797Z,14.90
2023-03-30T20:58:33.140Z,17.17
2023-03-30T21:03:35.520Z,14.50
2023-03-30T21:08:37.900Z,15.83
2023-03-30T21:13:40.234Z,17.70
2023-03-30T21:18:42.709Z,20.17
2023-03-30T21:23:45.643Z,17.23
2023-03-30T21:28:48.729Z,21.13
2023-03-30T21:33:51.184Z,16.50
2023-03-30T21:38:53.602Z,16.77
2023-03-30T21:43:56.072Z,23.10
2023-03-30T21:48:58.490Z,18.17
2023-03-30T21:54:01.787Z,19.07
2023-03-30T21:59:04.129Z,17.97
2023-03-30T22:04:06.760Z,20.20
2023-03-30T22:09:09.201Z,19.40
2023-03-30T22:14:11.594Z,22.20
2023-03-30T22:19:14.229Z,21.83
2023-03-30T22:24:18.355Z,22.23
2023-03-30T22:29:23.262Z,20.43
2023-03-30T22:34:25.808Z,28.17
2023-03-30T22:39:28.617Z,64.20
2023-03-30T22:44:31.022Z,99.70
2023-03-30T22:49:33.361Z,64.77
2023-03-30T22:54:36.054Z,31.37
2023-03-30T22:59:38.400Z,22.20
2023-03-30T23:04:40.758Z,24.83
2023-03-30T23:09:47.418Z,18.43
2023-03-30T23:14:50.035Z,28.53
2023-03-30T23:19:58.080Z,33.47
2023-03-30T23:25:00.536Z,17.73
2023-03-30T23:30:06.444Z,17.20
2023-03-30T23:35:09.150Z,17.80
2023-03-30T23:40:12.588Z,14.17
2023-03-30T23:45:15.007Z,15.60
2023-03-30T23:50:17.456Z,15.10
2023-03-30T23:55:19.876Z,23.63
